createdAt,value
2023-03-31T00:01:08.037Z,17.90
2023-03-31T00:04:05.461Z,17.95
2023-03-31T00:06:42.011Z,17.86
2023-03-31T00:09:18.988Z,17.89
2023-03-31T00:11:52.785Z,17.86
2023-03-31T00:14:25.830Z,17.86
2023-03-31T00:16:59.696Z,17.86
2023-03-31T00:19:33.289Z,17.86
2023-03-31T00:22:09.430Z,17.86
2023-03-31T00:27:37.484Z,17.74
2023-03-31T00:30:59.236Z,17.78
2023-03-31T00:33:21.296Z,17.80
2023-03-31T00:38:51.764Z,17.79
2023-03-31T00:41:27.993Z,17.83
2023-03-31T00:44:25.072Z,17.91
2023-03-31T00:47:11.813Z,17.86
2023-03-31T00:49:53.483Z,17.82
2023-03-31T00:52:37.502Z,17.79
2023-03-31T00:55:25.883Z,17.85
2023-03-31T00:58:01.930Z,17.82
2023-03-31T01:00:35.066Z,17.75
2023-03-31T01:03:13.733Z,17.79
2023-03-31T01:05:55.572Z,17.78
2023-03-31T01:08:29.395Z,17.79
2023-03-31T01:11:07.732Z,17.81
2023-03-31T01:16:34.124Z,17.74
2023-03-31T01:19:20.047Z,18.00
2023-03-31T01:22:21.611Z,17.83
2023-03-31T01:25:18.541Z,17.79
2023-03-31T01:28:06.335Z,17.82
2023-03-31T01:30:54.675Z,17.79
2023-03-31T01:33:46.801Z,17.80
2023-03-31T01:36:36.464Z,17.77
2023-03-31T01:40:25.198Z,17.80
2023-03-31T01:43:40.601Z,17.80
2023-03-31T01:46:41.876Z,17.78
2023-03-31T01:50:07.674Z,17.81
2023-03-31T01:53:10.681Z,17.96
2023-03-31T01:56:16.472Z,17.74
2023-03-31T01:59:08.201Z,17.74
2023-03-31T02:01:57.622Z,17.76
2023-03-31T02:04:42.207Z,17.71
2023-03-31T02:07:32.098Z,17.74
2023-03-31T02:10:22.960Z,17.69
2023-03-31T02:13:03.805Z,17.58
2023-03-31T02:15:48.565Z,17.60
2023-03-31T02:18:30.556Z,17.57
2023-03-31T02:21:04.760Z,17.62
2023-03-31T02:23:38.493Z,17.89
2023-03-31T02:26:35.891Z,17.60
2023-03-31T02:29:08.989Z,17.69
2023-03-31T02:32:06.090Z,17.73
2023-03-31T02:34:38.850Z,17.61
2023-03-31T02:37:16.836Z,17.56
2023-03-31T02:39:54.301Z,17.66
2023-03-31T02:42:27.579Z,17.65
2023-03-31T02:45:41.198Z,17.68
2023-03-31T02:48:34.824Z,17.70
2023-03-31T02:51:13.783Z,17.66
2023-03-31T02:54:24.849Z,17.64
2023-03-31T02:57:22.217Z,17.74
2023-03-31T03:00:15.300Z,17.65
2023-03-31T03:03:29.457Z,17.67
2023-03-31T03:06:53.958Z,17.71
2023-03-31T03:09:57.672Z,17.71
2023-03-31T03:13:04.155Z,17.62
2023-03-31T03:16:12.286Z,17.73
2023-03-31T03:18:58.137Z,17.64
2023-03-31T03:21:31.252Z,17.60
2023-03-31T03:24:04.265Z,17.61
2023-03-31T03:26:36.954Z,17.60
2023-03-31T03:29:09.516Z,17.56
2023-03-31T03:31:43.283Z,17.55
2023-03-31T03:34:16.419Z,17.59
2023-03-31T03:36:49.064Z,17.49
2023-03-31T03:39:21.776Z,17.49
2023-03-31T03:42:10.517Z,17.52
2023-03-31T03:44:58.114Z,17.51
2023-03-31T03:47:33.432Z,17.53
2023-03-31T03:50:07.220Z,17.56
2023-03-31T03:52:39.851Z,17.55
2023-03-31T03:55:13.937Z,17.44
2023-03-31T03:57:46.581Z,17.77
2023-03-31T04:00:19.687Z,17.50
2023-03-31T04:02:52.490Z,17.52
2023-03-31T04:05:25.457Z,17.45
2023-03-31T04:08:13.146Z,17.54
2023-03-31T04:11:12.306Z,17.55
2023-03-31T04:13:44.509Z,17.48
2023-03-31T04:16:25.876Z,17.76
2023-03-31T04:18:59.103Z,17.56
2023-03-31T04:24:22.042Z,17.46
2023-03-31T04:27:10.545Z,17.53
2023-03-31T04:29:55.393Z,17.42
2023-03-31T04:32:36.600Z,17.52
2023-03-31T04:35:09.759Z,17.50
2023-03-31T04:37:42.304Z,17.47
2023-03-31T04:40:16.000Z,17.50
2023-03-31T04:42:48.571Z,17.51
2023-03-31T04:45:21.148Z,17.45
2023-03-31T04:47:53.782Z,17.48
2023-03-31T04:50:26.448Z,17.43
2023-03-31T04:53:08.754Z,17.47
2023-03-31T04:55:49.928Z,17.32
2023-03-31T04:58:40.084Z,17.44
2023-03-31T05:01:33.303Z,17.41
2023-03-31T05:04:06.818Z,17.45
2023-03-31T05:06:47.927Z,17.46
2023-03-31T05:09:43.607Z,17.54
2023-03-31T05:12:38.887Z,17.47
2023-03-31T05:15:27.693Z,17.52
2023-03-31T05:18:00.361Z,17.29
2023-03-31T05:20:48.088Z,17.49
2023-03-31T05:23:35.746Z,17.29
2023-03-31T05:26:26.409Z,17.43
2023-03-31T05:29:26.721Z,17.36
2023-03-31T05:32:05.245Z,17.34
2023-03-31T05:34:37.969Z,17.26
2023-03-31T05:37:27.108Z,17.36
2023-03-31T05:39:59.828Z,17.37
2023-03-31T05:42:48.490Z,17.39
2023-03-31T05:45:26.357Z,17.42
2023-03-31T05:47:59.004Z,17.30
2023-03-31T05:50:49.242Z,17.32
2023-03-31T05:53:21.867Z,17.36
2023-03-31T05:56:04.307Z,17.33
2023-03-31T05:58:37.837Z,17.32
2023-03-31T06:04:16.648Z,17.51
2023-03-31T06:06:50.627Z,17.44
2023-03-31T06:09:23.345Z,17.47
2023-03-31T06:11:56.292Z,17.64
2023-03-31T06:14:32.082Z,17.70
2023-03-31T06:17:04.766Z,17.65
2023-03-31T06:19:40.387Z,17.76
2023-03-31T06:22:19.268Z,17.86
2023-03-31T06:24:51.943Z,17.80
2023-03-31T06:27:27.688Z,17.93
2023-03-31T06:30:00.335Z,17.85
2023-03-31T06:32:33.134Z,17.93
2023-03-31T06:35:06.557Z,17.90
2023-03-31T06:37:42.298Z,18.09
2023-03-31T06:43:08.143Z,18.07
2023-03-31T06:45:40.790Z,18.17
2023-03-31T06:48:13.676Z,18.20
2023-03-31T06:51:03.882Z,18.31
2023-03-31T06:53:37.513Z,18.28
2023-03-31T06:56:31.475Z,18.49
2023-03-31T06:59:04.055Z,18.47
2023-03-31T07:01:39.264Z,18.42
2023-03-31T07:04:12.057Z,18.48
2023-03-31T07:06:44.701Z,18.56
2023-03-31T07:09:18.595Z,18.57
2023-03-31T07:11:51.193Z,18.61
2023-03-31T07:14:24.061Z,18.54
2023-03-31T07:20:59.937Z,18.77
2023-03-31T07:23:41.089Z,18.61
2023-03-31T07:26:32.520Z,18.76
2023-03-31T07:29:06.654Z,18.76
2023-03-31T07:31:39.210Z,19.01
2023-03-31T07:34:12.349Z,18.71
2023-03-31T07:36:45.197Z,18.89
2023-03-31T07:39:29.852Z,18.76
2023-03-31T07:45:27.021Z,18.99
2023-03-31T07:48:02.946Z,18.84
2023-03-31T07:50:48.846Z,18.98
2023-03-31T07:53:21.656Z,18.91
2023-03-31T07:56:18.481Z,19.04
2023-03-31T07:58:55.155Z,19.08
2023-03-31T08:01:49.398Z,19.08
2023-03-31T08:04:28.613Z,19.04
2023-03-31T08:07:17.962Z,19.02
2023-03-31T08:10:09.323Z,19.04
2023-03-31T08:15:41.089Z,19.18
2023-03-31T08:21:29.777Z,19.15
2023-03-31T08:24:08.817Z,19.24
2023-03-31T08:26:59.386Z,19.15
2023-03-31T08:29:32.033Z,19.11
2023-03-31T08:32:24.294Z,19.24
2023-03-31T08:35:12.369Z,19.23
2023-03-31T08:37:44.925Z,19.20
2023-03-31T08:43:37.535Z,19.10
2023-03-31T08:46:18.581Z,19.20
2023-03-31T08:49:18.835Z,19.15
2023-03-31T08:51:58.356Z,19.19
2023-03-31T08:54:54.981Z,19.26
2023-03-31T09:00:57.138Z,19.18
2023-03-31T09:04:06.236Z,19.19
2023-03-31T09:07:03.730Z,19.21
2023-03-31T09:10:13.287Z,19.23
2023-03-31T09:13:05.841Z,19.15
2023-03-31T09:15:59.904Z,19.19
2023-03-31T09:18:37.936Z,19.17
2023-03-31T09:21:16.787Z,19.14
2023-03-31T09:24:11.648Z,19.16
2023-03-31T09:26:53.152Z,19.15
2023-03-31T09:29:53.823Z,19.24
2023-03-31T09:32:33.891Z,19.13
2023-03-31T09:35:28.463Z,19.19
2023-03-31T09:38:07.201Z,19.20
2023-03-31T09:40:43.522Z,19.19
2023-03-31T09:43:41.907Z,19.22
2023-03-31T09:46:40.001Z,19.28
2023-03-31T09:49:28.746Z,19.14
2023-03-31T09:52:26.225Z,19.21
2023-03-31T09:55:07.003Z,19.15
2023-03-31T09:58:01.506Z,19.20
2023-03-31T10:03:23.552Z,19.12
2023-03-31T10:06:40.822Z,19.17
2023-03-31T10:09:13.639Z,19.08
2023-03-31T10:15:39.184Z,19.12
2023-03-31T10:24:22.573Z,19.03
2023-03-31T10:27:01.516Z,19.08
2023-03-31T10:29:39.028Z,19.06
2023-03-31T10:32:22.155Z,19.05
2023-03-31T10:34:56.885Z,19.04
2023-03-31T10:37:37.750Z,18.93
2023-03-31T10:40:35.596Z,18.99
2023-03-31T10:43:41.226Z,19.05
2023-03-31T10:46:13.865Z,19.02
2023-03-31T10:48:52.588Z,18.89
2023-03-31T10:51:28.074Z,18.90
2023-03-31T10:54:03.488Z,18.96
2023-03-31T10:56:57.713Z,18.97
2023-03-31T10:59:47.243Z,18.97
2023-03-31T11:02:52.575Z,18.97
2023-03-31T11:05:45.125Z,18.99
2023-03-31T11:08:45.691Z,18.97
2023-03-31T11:12:04.618Z,19.00
2023-03-31T11:15:18.392Z,18.91
2023-03-31T11:18:25.258Z,18.93
2023-03-31T11:21:26.566Z,19.00
2023-03-31T11:24:21.590Z,18.98
2023-03-31T11:27:38.858Z,19.00
2023-03-31T11:30:52.387Z,18.89
2023-03-31T11:33:40.333Z,18.86
2023-03-31T11:36:49.572Z,18.96
2023-03-31T11:39:30.949Z,18.86
2023-03-31T11:42:15.789Z,18.84
2023-03-31T11:44:58.134Z,18.82
2023-03-31T11:47:37.992Z,18.82
2023-03-31T11:50:22.969Z,18.83
2023-03-31T11:53:02.800Z,18.78
2023-03-31T11:55:37.688Z,18.80
2023-03-31T11:58:22.014Z,18.72
2023-03-31T12:01:13.763Z,18.84
2023-03-31T12:04:48.845Z,18.89
2023-03-31T12:07:29.568Z,18.85
2023-03-31T12:10:22.940Z,18.87
2023-03-31T12:13:20.572Z,18.91
2023-03-31T12:16:06.693Z,18.85
2023-03-31T12:19:02.428Z,18.83
2023-03-31T12:21:47.247Z,18.83
2023-03-31T12:24:20.044Z,18.85
2023-03-31T12:30:48.022Z,18.90
2023-03-31T12:33:44.321Z,18.87
2023-03-31T12:36:56.629Z,18.87
2023-03-31T12:39:46.121Z,18.85
2023-03-31T12:43:07.762Z,18.96
2023-03-31T12:45:56.279Z,18.83
2023-03-31T12:48:56.494Z,18.96
2023-03-31T12:51:40.834Z,18.88
2023-03-31T12:54:22.777Z,18.90
2023-03-31T12:57:04.465Z,18.88
2023-03-31T12:59:45.896Z,18.84
2023-03-31T13:02:25.203Z,18.79
2023-03-31T13:04:57.947Z,18.84
2023-03-31T13:07:30.493Z,18.82
2023-03-31T13:10:27.856Z,18.87
2023-03-31T13:16:21.309Z,18.77
2023-03-31T13:18:56.796Z,18.76
2023-03-31T13:21:29.915Z,18.73
2023-03-31T13:24:24.005Z,18.81
2023-03-31T13:27:49.853Z,18.88
2023-03-31T13:30:41.508Z,18.87
2023-03-31T13:33:39.099Z,18.72
2023-03-31T13:36:17.646Z,18.82
2023-03-31T13:39:43.008Z,18.83
2023-03-31T13:49:39.540Z,18.98
2023-03-31T13:53:07.437Z,19.07
2023-03-31T13:56:49.492Z,19.12
2023-03-31T14:00:15.127Z,19.12
2023-03-31T14:03:17.084Z,19.17
2023-03-31T14:06:06.121Z,19.24
2023-03-31T14:08:38.763Z,19.25
2023-03-31T14:11:32.707Z,19.31
2023-03-31T14:14:23.851Z,19.31
2023-03-31T14:17:06.764Z,19.21
2023-03-31T14:20:19.942Z,19.44
2023-03-31T14:23:41.107Z,19.49
2023-03-31T14:26:51.700Z,19.44
2023-03-31T14:30:27.225Z,19.49
2023-03-31T14:33:26.098Z,19.37
2023-03-31T14:36:47.876Z,19.41
2023-03-31T14:39:26.348Z,19.44
2023-03-31T14:42:18.396Z,19.43
2023-03-31T14:44:57.520Z,19.42
2023-03-31T14:47:53.012Z,19.41
2023-03-31T14:50:33.476Z,19.34
2023-03-31T14:53:26.251Z,19.41
2023-03-31T14:56:17.508Z,19.39
2023-03-31T14:58:56.249Z,19.29
2023-03-31T15:01:37.766Z,19.38
2023-03-31T15:04:15.816Z,19.38
2023-03-31T15:06:51.556Z,19.36
2023-03-31T15:09:29.972Z,19.42
2023-03-31T15:12:08.255Z,19.40
2023-03-31T15:15:03.866Z,19.39
2023-03-31T15:17:42.688Z,19.29
2023-03-31T15:20:29.322Z,19.41
2023-03-31T15:23:21.220Z,19.37
2023-03-31T15:26:09.868Z,19.35
2023-03-31T15:28:55.285Z,19.33
2023-03-31T15:31:28.540Z,19.33
2023-03-31T15:34:22.185Z,19.29
2023-03-31T15:36:57.258Z,19.29
2023-03-31T15:39:37.324Z,19.26
2023-03-31T15:42:10.307Z,19.25
2023-03-31T15:44:55.264Z,19.17
2023-03-31T15:47:30.613Z,19.20
2023-03-31T15:50:12.921Z,19.21
2023-03-31T15:52:55.726Z,19.21
2023-03-31T15:58:19.058Z,19.04
2023-03-31T16:00:54.406Z,19.04
2023-03-31T16:03:48.336Z,19.04
2023-03-31T16:06:41.625Z,19.04
2023-03-31T16:09:24.308Z,19.09
2023-03-31T16:12:10.699Z,18.92
2023-03-31T16:15:14.071Z,19.08
2023-03-31T16:18:26.418Z,18.97
2023-03-31T16:21:26.410Z,18.83
2023-03-31T16:24:36.072Z,18.87
2023-03-31T16:27:24.372Z,19.04
2023-03-31T16:30:22.143Z,19.05
2023-03-31T16:33:17.986Z,19.03
2023-03-31T16:35:55.884Z,18.88
2023-03-31T16:38:29.918Z,18.78
2023-03-31T16:41:22.035Z,18.87
2023-03-31T16:43:55.420Z,18.80
2023-03-31T16:46:34.402Z,18.88
2023-03-31T16:49:32.009Z,18.71
2023-03-31T16:52:05.315Z,18.74
2023-03-31T16:54:38.323Z,18.77
2023-03-31T16:57:15.323Z,18.77
2023-03-31T16:59:54.477Z,18.79
2023-03-31T17:02:28.284Z,18.77
2023-03-31T17:05:12.627Z,18.76
2023-03-31T17:07:46.652Z,18.74
2023-03-31T17:10:19.976Z,18.69
2023-03-31T17:12:52.964Z,18.72
2023-03-31T17:15:25.951Z,18.71
2023-03-31T17:17:59.193Z,18.71
2023-03-31T17:20:32.786Z,18.67
2023-03-31T17:23:08.264Z,18.69
2023-03-31T17:25:55.945Z,18.51
2023-03-31T17:28:34.397Z,18.51
2023-03-31T17:31:35.076Z,18.68
2023-03-31T17:34:07.687Z,18.58
2023-03-31T17:36:57.348Z,18.59
2023-03-31T17:39:30.207Z,18.56
2023-03-31T17:46:05.212Z,18.48
2023-03-31T17:48:39.188Z,18.60
2023-03-31T17:51:16.303Z,18.47
2023-03-31T17:57:13.537Z,18.38
2023-03-31T17:59:48.598Z,18.55
2023-03-31T18:02:22.431Z,18.37
2023-03-31T18:04:55.291Z,18.42
2023-03-31T18:07:28.374Z,18.47
2023-03-31T18:10:15.680Z,18.37
2023-03-31T18:12:49.655Z,18.31
2023-03-31T18:15:32.479Z,18.32
2023-03-31T18:18:23.574Z,18.48
2023-03-31T18:22:04.204Z,18.46
2023-03-31T18:24:38.468Z,18.32
2023-03-31T18:27:11.931Z,18.37
2023-03-31T18:32:31.635Z,18.39
2023-03-31T18:35:07.060Z,18.29
2023-03-31T18:42:33.121Z,18.50
2023-03-31T18:54:23.541Z,18.37
2023-03-31T18:57:46.702Z,18.46
2023-03-31T19:00:41.007Z,18.28
2023-03-31T19:06:22.477Z,18.28
2023-03-31T19:09:43.285Z,18.42
2023-03-31T19:12:23.499Z,18.34
2023-03-31T19:15:16.592Z,18.17
2023-03-31T19:18:01.994Z,18.30
2023-03-31T19:23:27.074Z,18.17
2023-03-31T19:26:50.713Z,18.37
2023-03-31T19:29:38.847Z,18.22
2023-03-31T19:56:21.416Z,18.17
2023-03-31T19:58:54.615Z,18.10
2023-03-31T20:01:27.947Z,18.18
2023-03-31T20:04:01.405Z,18.14
2023-03-31T20:06:37.189Z,18.08
2023-03-31T20:09:29.016Z,18.08
2023-03-31T20:15:31.800Z,18.17
2023-03-31T20:22:56.136Z,18.24
2023-03-31T20:25:28.992Z,18.16
2023-03-31T20:28:02.195Z,18.09
2023-03-31T20:30:50.476Z,18.06
2023-03-31T20:33:25.045Z,18.06
2023-03-31T20:36:28.786Z,18.22
2023-03-31T20:39:19.373Z,18.06
2023-03-31T20:41:52.270Z,18.00
2023-03-31T20:44:24.918Z,17.96
2023-03-31T20:46:59.089Z,17.99
2023-03-31T20:52:18.374Z,17.92
2023-03-31T20:55:03.428Z,18.06
2023-03-31T20:57:36.609Z,17.91
2023-03-31T21:00:21.570Z,17.98
2023-03-31T21:02:54.329Z,18.07
2023-03-31T21:05:44.887Z,18.11
2023-03-31T21:08:17.527Z,17.96
2023-03-31T21:10:50.670Z,18.07
2023-03-31T21:20:12.565Z,17.94
2023-03-31T21:22:45.272Z,18.01
2023-03-31T21:25:38.752Z,17.99
2023-03-31T21:28:12.945Z,17.97
2023-03-31T21:31:11.472Z,18.24
2023-03-31T21:34:11.665Z,17.91
2023-03-31T21:36:47.726Z,17.90
2023-03-31T21:39:35.384Z,18.06
2023-03-31T21:42:28.181Z,17.91
2023-03-31T21:45:02.108Z,17.98
2023-03-31T21:47:52.635Z,17.94
2023-03-31T21:53:14.818Z,17.81
2023-03-31T21:56:04.917Z,17.94
2023-03-31T21:58:57.897Z,18.05
2023-03-31T22:01:59.252Z,17.84
2023-03-31T22:04:41.435Z,17.87
2023-03-31T22:07:14.485Z,17.79
2023-03-31T22:09:56.524Z,17.86
2023-03-31T22:12:30.638Z,17.93
2023-03-31T22:15:03.599Z,18.13
2023-03-31T22:17:50.691Z,17.93
2023-03-31T22:20:38.946Z,17.98
2023-03-31T22:23:11.566Z,17.79
2023-03-31T22:25:59.622Z,17.80
2023-03-31T22:28:32.423Z,17.77
2023-03-31T22:31:19.100Z,17.94
2023-03-31T22:33:53.077Z,17.87
2023-03-31T22:36:25.742Z,17.74
2023-03-31T22:38:58.467Z,17.77
2023-03-31T22:41:49.396Z,17.86
2023-03-31T22:45:04.344Z,17.85
2023-03-31T22:47:43.229Z,17.89
2023-03-31T22:58:35.724Z,17.77
2023-03-31T23:12:34.976Z,17.75
2023-03-31T23:15:26.275Z,17.77
2023-03-31T23:18:29.261Z,17.71
2023-03-31T23:20:56.110Z,17.76
2023-03-31T23:23:37.235Z,17.77
2023-03-31T23:26:27.828Z,17.64
2023-03-31T23:29:01.670Z,17.74
2023-03-31T23:31:43.384Z,17.70
2023-03-31T23:34:28.271Z,17.83
2023-03-31T23:37:11.080Z,17.78
2023-03-31T23:39:49.497Z,17.73
2023-03-31T23:45:11.646Z,17.76
2023-03-31T23:48:01.940Z,17.76
2023-03-31T23:50:34.723Z,17.61
2023-03-31T23:53:07.370Z,17.67
2023-03-31T23:58:27.321Z,17.63
